sensor_id;sensor_type;location;lat;lon;timestamp;pressure;altitude;pressure_sealevel;temperature;humidity
66430;BME280;53242;51.694;10.006;2023-04-08T00:00:12;100030.34;;;7.54;55.52
66430;BME280;53242;51.694;10.006;2023-04-08T00:02:36;100028.69;;;7.45;56.83
66430;BME280;53242;51.694;10.006;2023-04-08T00:04:58;100028.50;;;7.46;56.77
66430;BME280;53242;51.694;10.006;2023-04-08T00:07:21;100028.34;;;7.48;57.08
66430;BME280;53242;51.694;10.006;2023-04-08T00:09:43;100032.75;;;7.31;58.36
66430;BME280;53242;51.694;10.006;2023-04-08T00:12:06;100030.41;;;7.28;59.50
66430;BME280;53242;51.694;10.006;2023-04-08T00:14:29;100028.03;;;7.00;61.02
66430;BME280;53242;51.694;10.006;2023-04-08T00:16:51;100029.28;;;7.30;61.14
66430;BME280;53242;51.694;10.006;2023-04-08T00:19:14;100030.41;;;7.28;60.91
66430;BME280;53242;51.694;10.006;2023-04-08T00:21:36;100024.16;;;7.20;61.46
66430;BME280;53242;51.694;10.006;2023-04-08T00:23:58;100024.97;;;7.21;62.61
66430;BME280;53242;51.694;10.006;2023-04-08T00:26:21;100024.47;;;7.17;62.89
66430;BME280;53242;51.694;10.006;2023-04-08T00:28:44;100027.41;;;7.06;63.45
66430;BME280;53242;51.694;10.006;2023-04-08T00:31:08;100026.38;;;6.99;63.73
66430;BME280;53242;51.694;10.006;2023-04-08T00:33:30;100028.38;;;7.05;64.38
66430;BME280;53242;51.694;10.006;2023-04-08T00:35:53;100018.09;;;7.20;64.17
66430;BME280;53242;51.694;10.006;2023-04-08T00:38:16;100027.44;;;7.22;64.33
66430;BME280;53242;51.694;10.006;2023-04-08T00:40:38;100014.00;;;7.26;63.87
66430;BME280;53242;51.694;10.006;2023-04-08T00:43:01;100012.53;;;7.23;65.18
66430;BME280;53242;51.694;10.006;2023-04-08T00:45:23;100012.88;;;7.36;64.52
66430;BME280;53242;51.694;10.006;2023-04-08T00:47:45;100022.53;;;7.19;64.34
66430;BME280;53242;51.694;10.006;2023-04-08T00:50:13;100024.97;;;7.21;65.15
66430;BME280;53242;51.694;10.006;2023-04-08T00:52:36;100034.31;;;7.15;65.56
66430;BME280;53242;51.694;10.006;2023-04-08T00:54:58;100026.16;;;7.27;65.34
66430;BME280;53242;51.694;10.006;2023-04-08T00:57:21;100025.47;;;7.16;65.34
66430;BME280;53242;51.694;10.006;2023-04-08T00:59:43;100023.00;;;7.15;66.02
66430;BME280;53242;51.694;10.006;2023-04-08T01:02:22;100032.66;;;7.06;66.61
66430;BME280;53242;51.694;10.006;2023-04-08T01:04:55;100031.91;;;6.87;69.47
66430;BME280;53242;51.694;10.006;2023-04-08T01:07:28;100027.69;;;6.95;69.55
66430;BME280;53242;51.694;10.006;2023-04-08T01:09:58;100016.31;;;6.86;70.23
66430;BME280;53242;51.694;10.006;2023-04-08T01:12:29;100014.13;;;6.73;71.90
66430;BME280;53242;51.694;10.006;2023-04-08T01:14:57;100016.50;;;6.84;71.07
66430;BME280;53242;51.694;10.006;2023-04-08T01:17:21;100019.13;;;6.58;71.30
66430;BME280;53242;51.694;10.006;2023-04-08T01:19:44;100020.84;;;6.67;71.14
66430;BME280;53242;51.694;10.006;2023-04-08T01:22:22;100026.22;;;6.66;73.49
66430;BME280;53242;51.694;10.006;2023-04-08T01:24:49;100028.78;;;6.49;73.45
66430;BME280;53242;51.694;10.006;2023-04-08T01:27:13;100028.06;;;6.39;73.59
66430;BME280;53242;51.694;10.006;2023-04-08T01:29:36;100029.63;;;6.32;74.84
66430;BME280;53242;51.694;10.006;2023-04-08T01:32:02;100030.81;;;6.37;75.16
66430;BME280;53242;51.694;10.006;2023-04-08T01:34:27;100028.94;;;6.30;75.54
66430;BME280;53242;51.694;10.006;2023-04-08T01:36:52;100028.00;;;6.13;76.50
66430;BME280;53242;51.694;10.006;2023-04-08T01:39:17;100027.34;;;6.11;77.09
66430;BME280;53242;51.694;10.006;2023-04-08T01:41:43;100036.19;;;6.09;77.01
66430;BME280;53242;51.694;10.006;2023-04-08T01:44:08;100027.50;;;6.09;76.93
66430;BME280;53242;51.694;10.006;2023-04-08T01:46:32;100029.72;;;6.22;77.41
66430;BME280;53242;51.694;10.006;2023-04-08T01:48:56;100024.50;;;6.04;78.13
66430;BME280;53242;51.694;10.006;2023-04-08T01:51:21;100027.72;;;6.16;77.85
66430;BME280;53242;51.694;10.006;2023-04-08T01:53:43;100021.06;;;6.03;77.78
66430;BME280;53242;51.694;10.006;2023-04-08T01:56:11;100020.47;;;6.09;78.71
66430;BME280;53242;51.694;10.006;2023-04-08T01:58:40;100028.63;;;6.06;78.36
66430;BME280;53242;51.694;10.006;2023-04-08T02:01:05;100035.34;;;5.91;79.57
66430;BME280;53242;51.694;10.006;2023-04-08T02:03:32;100030.34;;;5.80;81.17
66430;BME280;53242;51.694;10.006;2023-04-08T02:05:55;100035.97;;;5.85;79.74
66430;BME280;53242;51.694;10.006;2023-04-08T02:08:18;100035.34;;;5.91;79.70
66430;BME280;53242;51.694;10.006;2023-04-08T02:10:40;100036.78;;;5.85;80.22
66430;BME280;53242;51.694;10.006;2023-04-08T02:13:03;100035.06;;;5.76;80.52
66430;BME280;53242;51.694;10.006;2023-04-08T02:15:27;100033.81;;;5.98;80.49
66430;BME280;53242;51.694;10.006;2023-04-08T02:17:59;100035.13;;;5.84;81.23
66430;BME280;53242;51.694;10.006;2023-04-08T02:20:42;100038.50;;;6.13;79.64
66430;BME280;53242;51.694;10.006;2023-04-08T02:23:13;100043.53;;;6.06;80.40
66430;BME280;53242;51.694;10.006;2023-04-08T02:25:39;100037.81;;;5.92;80.13
66430;BME280;53242;51.694;10.006;2023-04-08T02:28:05;100032.88;;;5.89;80.55
66430;BME280;53242;51.694;10.006;2023-04-08T02:30:29;100032.50;;;5.84;81.30
66430;BME280;53242;51.694;10.006;2023-04-08T02:32:53;100033.34;;;5.67;82.31
66430;BME280;53242;51.694;10.006;2023-04-08T02:35:18;100037.09;;;5.82;81.46
66430;BME280;53242;51.694;10.006;2023-04-08T02:37:41;100037.69;;;5.76;81.87
66430;BME280;53242;51.694;10.006;2023-04-08T02:40:22;100038.69;;;5.83;82.94
66430;BME280;53242;51.694;10.006;2023-04-08T02:42:45;100037.47;;;5.87;82.52
66430;BME280;53242;51.694;10.006;2023-04-08T02:45:07;100033.94;;;5.79;82.33
66430;BME280;53242;51.694;10.006;2023-04-08T02:47:30;100038.44;;;5.86;82.01
66430;BME280;53242;51.694;10.006;2023-04-08T02:49:52;100031.38;;;5.87;81.75
66430;BME280;53242;51.694;10.006;2023-04-08T02:52:16;100042.38;;;5.90;82.03
66430;BME280;53242;51.694;10.006;2023-04-08T02:54:38;100040.66;;;5.81;82.18
66430;BME280;53242;51.694;10.006;2023-04-08T02:57:01;100037.69;;;5.76;82.26
66430;BME280;53242;51.694;10.006;2023-04-08T02:59:23;100040.34;;;5.84;81.49
66430;BME280;53242;51.694;10.006;2023-04-08T03:01:46;100044.31;;;5.88;82.58
66430;BME280;53242;51.694;10.006;2023-04-08T03:04:09;100038.69;;;5.83;82.47
66430;BME280;53242;51.694;10.006;2023-04-08T03:06:31;100043.44;;;5.98;81.41
66430;BME280;53242;51.694;10.006;2023-04-08T03:08:54;100047.63;;;5.90;82.07
66430;BME280;53242;51.694;10.006;2023-04-08T03:11:16;100053.00;;;5.71;82.61
66430;BME280;53242;51.694;10.006;2023-04-08T03:13:38;100061.41;;;5.74;82.77
66430;BME280;53242;51.694;10.006;2023-04-08T03:16:01;100058.63;;;5.76;82.74
66430;BME280;53242;51.694;10.006;2023-04-08T03:18:24;100060.66;;;5.82;82.67
66430;BME280;53242;51.694;10.006;2023-04-08T03:20:46;100055.78;;;5.69;82.90
66430;BME280;53242;51.694;10.006;2023-04-08T03:23:09;100061.41;;;5.74;83.16
66430;BME280;53242;51.694;10.006;2023-04-08T03:25:31;100057.88;;;5.66;83.21
66430;BME280;53242;51.694;10.006;2023-04-08T03:27:54;100060.03;;;5.70;83.39
66430;BME280;53242;51.694;10.006;2023-04-08T03:30:17;100050.47;;;5.79;83.24
66430;BME280;53242;51.694;10.006;2023-04-08T03:32:39;100055.84;;;5.78;83.03
66430;BME280;53242;51.694;10.006;2023-04-08T03:35:03;100064.75;;;5.67;83.42
66430;BME280;53242;51.694;10.006;2023-04-08T03:37:26;100069.00;;;5.68;83.89
66430;BME280;53242;51.694;10.006;2023-04-08T03:39:48;100062.16;;;5.67;83.83
66430;BME280;53242;51.694;10.006;2023-04-08T03:42:10;100067.97;;;5.60;84.42
66430;BME280;53242;51.694;10.006;2023-04-08T03:44:33;100063.00;;;5.57;84.20
66430;BME280;53242;51.694;10.006;2023-04-08T03:46:55;100063.75;;;5.50;84.53
66430;BME280;53242;51.694;10.006;2023-04-08T03:49:18;100062.16;;;5.39;85.27
66430;BME280;53242;51.694;10.006;2023-04-08T03:51:40;100073.88;;;5.63;85.18
66430;BME280;53242;51.694;10.006;2023-04-08T03:54:03;100062.16;;;5.67;84.40
66430;BME280;53242;51.694;10.006;2023-04-08T03:56:25;100067.75;;;5.54;84.96
66430;BME280;53242;51.694;10.006;2023-04-08T03:58:47;100073.75;;;5.64;84.51
66430;BME280;53242;51.694;10.006;2023-04-08T04:01:10;100072.75;;;5.65;83.96
66430;BME280;53242;51.694;10.006;2023-04-08T04:03:32;100068.78;;;5.61;84.27
66430;BME280;53242;51.694;10.006;2023-04-08T04:05:55;100075.25;;;5.67;84.00
66430;BME280;53242;51.694;10.006;2023-04-08T04:08:17;100069.91;;;5.58;84.04
66430;BME280;53242;51.694;10.006;2023-04-08T04:10:40;100071.22;;;5.44;85.39
66430;BME280;53242;51.694;10.006;2023-04-08T04:13:02;100069.53;;;5.25;87.39
66430;BME280;53242;51.694;10.006;2023-04-08T04:15:24;100068.75;;;5.43;85.52
66430;BME280;53242;51.694;10.006;2023-04-08T04:17:47;100075.56;;;5.36;85.78
66430;BME280;53242;51.694;10.006;2023-04-08T04:20:11;100082.34;;;5.29;86.30
66430;BME280;53242;51.694;10.006;2023-04-08T04:22:33;100088.50;;;5.37;85.74
66430;BME280;53242;51.694;10.006;2023-04-08T04:24:56;100085.31;;;5.43;85.66
66430;BME280;53242;51.694;10.006;2023-04-08T04:27:18;100094.38;;;5.39;86.71
66430;BME280;53242;51.694;10.006;2023-04-08T04:29:41;100096.63;;;5.34;86.04
66430;BME280;53242;51.694;10.006;2023-04-08T04:32:03;100099.06;;;5.46;86.45
66430;BME280;53242;51.694;10.006;2023-04-08T04:34:26;100095.41;;;5.29;87.47
66430;BME280;53242;51.694;10.006;2023-04-08T04:36:48;100105.72;;;5.40;86.94
66430;BME280;53242;51.694;10.006;2023-04-08T04:39:11;100108.50;;;5.29;86.80
66430;BME280;53242;51.694;10.006;2023-04-08T04:41:34;100102.03;;;5.23;87.47
66430;BME280;53242;51.694;10.006;2023-04-08T04:44:00;100104.63;;;5.33;86.44
66430;BME280;53242;51.694;10.006;2023-04-08T04:46:22;100112.47;;;5.33;87.08
66430;BME280;53242;51.694;10.006;2023-04-08T04:48:45;100107.72;;;5.18;87.85
66430;BME280;53242;51.694;10.006;2023-04-08T04:51:07;100113.63;;;5.48;86.71
66430;BME280;53242;51.694;10.006;2023-04-08T04:53:30;100116.19;;;5.40;87.20
66430;BME280;53242;51.694;10.006;2023-04-08T04:55:52;100114.00;;;5.25;86.82
66430;BME280;53242;51.694;10.006;2023-04-08T04:58:15;100118.84;;;5.20;87.83
66430;BME280;53242;51.694;10.006;2023-04-08T05:00:37;100116.84;;;5.14;89.11
66430;BME280;53242;51.694;10.006;2023-04-08T05:03:00;100117.06;;;5.21;88.19
66430;BME280;53242;51.694;10.006;2023-04-08T05:05:22;100121.16;;;5.33;88.30
66430;BME280;53242;51.694;10.006;2023-04-08T05:07:45;100120.31;;;5.33;87.91
66430;BME280;53242;51.694;10.006;2023-04-08T05:10:07;100124.69;;;5.42;88.40
66430;BME280;53242;51.694;10.006;2023-04-08T05:12:30;100124.63;;;5.24;88.74
66430;BME280;53242;51.694;10.006;2023-04-08T05:14:52;100127.91;;;5.36;88.07
66430;BME280;53242;51.694;10.006;2023-04-08T05:17:15;100139.53;;;5.23;89.31
66430;BME280;53242;51.694;10.006;2023-04-08T05:19:37;100137.28;;;5.29;88.98
66430;BME280;53242;51.694;10.006;2023-04-08T05:22:00;100131.66;;;5.23;88.43
66430;BME280;53242;51.694;10.006;2023-04-08T05:24:22;100141.06;;;5.16;88.83
66430;BME280;53242;51.694;10.006;2023-04-08T05:26:45;100141.56;;;5.30;89.46
66430;BME280;53242;51.694;10.006;2023-04-08T05:29:09;100137.28;;;5.29;89.17
66430;BME280;53242;51.694;10.006;2023-04-08T05:31:31;100139.78;;;5.20;89.61
66430;BME280;53242;51.694;10.006;2023-04-08T05:33:53;100139.66;;;5.22;89.09
66430;BME280;53242;51.694;10.006;2023-04-08T05:36:16;100141.34;;;5.13;88.82
66430;BME280;53242;51.694;10.006;2023-04-08T05:38:39;100147.53;;;5.22;88.94
66430;BME280;53242;51.694;10.006;2023-04-08T05:41:05;100150.53;;;5.27;89.41
66430;BME280;53242;51.694;10.006;2023-04-08T05:43:28;100147.63;;;5.30;89.21
66430;BME280;53242;51.694;10.006;2023-04-08T05:45:50;100152.31;;;5.26;89.49
66430;BME280;53242;51.694;10.006;2023-04-08T05:48:13;100151.75;;;5.33;89.39
66430;BME280;53242;51.694;10.006;2023-04-08T05:50:35;100148.34;;;5.13;90.56
66430;BME280;53242;51.694;10.006;2023-04-08T05:52:58;100154.75;;;5.38;90.26
66430;BME280;53242;51.694;10.006;2023-04-08T05:55:20;100150.34;;;5.38;89.55
66430;BME280;53242;51.694;10.006;2023-04-08T05:57:43;100151.41;;;5.46;88.92
66430;BME280;53242;51.694;10.006;2023-04-08T06:00:07;100156.31;;;5.31;89.42
66430;BME280;53242;51.694;10.006;2023-04-08T06:02:29;100150.09;;;5.32;89.50
66430;BME280;53242;51.694;10.006;2023-04-08T06:04:52;100147.63;;;5.30;89.53
66430;BME280;53242;51.694;10.006;2023-04-08T06:07:14;100159.72;;;5.41;89.07
66430;BME280;53242;51.694;10.006;2023-04-08T06:09:37;100154.09;;;5.36;89.46
66430;BME280;53242;51.694;10.006;2023-04-08T06:11:59;100158.22;;;5.38;89.82
66430;BME280;53242;51.694;10.006;2023-04-08T06:14:22;100154.88;;;5.46;90.22
66430;BME280;53242;51.694;10.006;2023-04-08T06:16:44;100153.94;;;5.37;90.29
66430;BME280;53242;51.694;10.006;2023-04-08T06:19:07;100162.56;;;5.48;89.73
66430;BME280;53242;51.694;10.006;2023-04-08T06:21:29;100164.41;;;5.37;89.80
66430;BME280;53242;51.694;10.006;2023-04-08T06:23:52;100163.56;;;5.37;89.94
66430;BME280;53242;51.694;10.006;2023-04-08T06:26:14;100168.53;;;5.40;90.18
66430;BME280;53242;51.694;10.006;2023-04-08T06:28:37;100175.50;;;5.49;89.05
66430;BME280;53242;51.694;10.006;2023-04-08T06:31:00;100176.06;;;5.53;88.90
66430;BME280;53242;51.694;10.006;2023-04-08T06:33:22;100172.72;;;5.60;89.69
66430;BME280;53242;51.694;10.006;2023-04-08T06:35:45;100184.16;;;5.59;89.31
66430;BME280;53242;51.694;10.006;2023-04-08T06:38:08;100191.03;;;5.60;89.54
66430;BME280;53242;51.694;10.006;2023-04-08T06:40:30;100197.78;;;5.63;88.87
66430;BME280;53242;51.694;10.006;2023-04-08T06:42:52;100192.41;;;5.65;89.45
66430;BME280;53242;51.694;10.006;2023-04-08T06:45:29;100200.81;;;5.58;89.57
66430;BME280;53242;51.694;10.006;2023-04-08T06:47:51;100196.22;;;5.70;89.59
66430;BME280;53242;51.694;10.006;2023-04-08T06:50:14;100191.66;;;5.72;89.14
66430;BME280;53242;51.694;10.006;2023-04-08T06:52:37;100193.34;;;5.64;89.72
66430;BME280;53242;51.694;10.006;2023-04-08T06:54:59;100201.69;;;5.49;89.64
66430;BME280;53242;51.694;10.006;2023-04-08T06:57:21;100204.78;;;5.63;89.25
66430;BME280;53242;51.694;10.006;2023-04-08T06:59:47;100204.72;;;5.54;90.18
66430;BME280;53242;51.694;10.006;2023-04-08T07:02:09;100202.63;;;5.58;89.37
66430;BME280;53242;51.694;10.006;2023-04-08T07:04:32;100203.69;;;5.65;89.65
66430;BME280;53242;51.694;10.006;2023-04-08T07:06:54;100200.16;;;5.56;90.20
66430;BME280;53242;51.694;10.006;2023-04-08T07:09:17;100207.88;;;5.58;90.95
66430;BME280;53242;51.694;10.006;2023-04-08T07:11:39;100211.75;;;5.54;90.87
66430;BME280;53242;51.694;10.006;2023-04-08T07:14:02;100212.22;;;5.67;89.96
66430;BME280;53242;51.694;10.006;2023-04-08T07:16:24;100217.72;;;5.74;90.06
66430;BME280;53242;51.694;10.006;2023-04-08T07:18:47;100219.50;;;5.73;90.47
66430;BME280;53242;51.694;10.006;2023-04-08T07:21:09;100215.00;;;5.66;90.37
66430;BME280;53242;51.694;10.006;2023-04-08T07:23:32;100221.84;;;5.76;90.18
66430;BME280;53242;51.694;10.006;2023-04-08T07:25:55;100227.53;;;5.72;89.95
66430;BME280;53242;51.694;10.006;2023-04-08T07:28:23;100232.88;;;5.70;89.89
66430;BME280;53242;51.694;10.006;2023-04-08T07:30:45;100233.03;;;5.69;90.02
66430;BME280;53242;51.694;10.006;2023-04-08T07:33:08;100235.78;;;5.77;90.42
66430;BME280;53242;51.694;10.006;2023-04-08T07:35:30;100239.38;;;5.66;90.04
66430;BME280;53242;51.694;10.006;2023-04-08T07:37:53;100232.84;;;5.80;90.17
66430;BME280;53242;51.694;10.006;2023-04-08T07:40:16;100242.75;;;5.86;90.32
66430;BME280;53242;51.694;10.006;2023-04-08T07:42:38;100243.88;;;5.84;89.55
66430;BME280;53242;51.694;10.006;2023-04-08T07:45:01;100242.38;;;5.81;90.00
66430;BME280;53242;51.694;10.006;2023-04-08T07:47:23;100245.41;;;5.76;89.94
66430;BME280;53242;51.694;10.006;2023-04-08T07:49:46;100245.47;;;5.95;89.83
66430;BME280;53242;51.694;10.006;2023-04-08T07:52:09;100251.28;;;5.88;89.71
66430;BME280;53242;51.694;10.006;2023-04-08T07:54:31;100252.22;;;5.97;89.45
66430;BME280;53242;51.694;10.006;2023-04-08T07:56:57;100254.00;;;5.97;89.42
66430;BME280;53242;51.694;10.006;2023-04-08T07:59:21;100259.00;;;5.90;89.58
66430;BME280;53242;51.694;10.006;2023-04-08T08:01:43;100263.09;;;6.02;89.27
66430;BME280;53242;51.694;10.006;2023-04-08T08:04:06;100262.56;;;5.99;89.21
66430;BME280;53242;51.694;10.006;2023-04-08T08:06:28;100260.91;;;5.98;88.97
66430;BME280;53242;51.694;10.006;2023-04-08T08:08:53;100261.03;;;5.96;89.20
66430;BME280;53242;51.694;10.006;2023-04-08T08:11:16;100270.97;;;6.02;89.42
66430;BME280;53242;51.694;10.006;2023-04-08T08:13:38;100266.69;;;6.29;88.45
66430;BME280;53242;51.694;10.006;2023-04-08T08:16:00;100268.22;;;6.22;88.88
66430;BME280;53242;51.694;10.006;2023-04-08T08:18:23;100266.31;;;6.24;88.47
66430;BME280;53242;51.694;10.006;2023-04-08T08:20:45;100269.31;;;6.29;89.02
66430;BME280;53242;51.694;10.006;2023-04-08T08:23:08;100271.63;;;6.32;88.27
66430;BME280;53242;51.694;10.006;2023-04-08T08:25:30;100274.34;;;6.40;87.75
66430;BME280;53242;51.694;10.006;2023-04-08T08:27:53;100277.03;;;6.49;87.65
66430;BME280;53242;51.694;10.006;2023-04-08T08:30:16;100285.06;;;6.47;87.37
66430;BME280;53242;51.694;10.006;2023-04-08T08:32:40;100281.69;;;6.37;87.50
66430;BME280;53242;51.694;10.006;2023-04-08T08:35:03;100282.22;;;6.40;87.52
66430;BME280;53242;51.694;10.006;2023-04-08T08:37:26;100282.47;;;6.65;87.37
66430;BME280;53242;51.694;10.006;2023-04-08T08:39:48;100280.78;;;6.46;87.07
66430;BME280;53242;51.694;10.006;2023-04-08T08:42:21;100288.59;;;6.56;87.36
66430;BME280;53242;51.694;10.006;2023-04-08T08:44:44;100291.94;;;6.30;88.00
66430;BME280;53242;51.694;10.006;2023-04-08T08:47:06;100286.38;;;6.33;87.59
66430;BME280;53242;51.694;10.006;2023-04-08T08:49:29;100287.88;;;6.36;87.41
66430;BME280;53242;51.694;10.006;2023-04-08T08:51:52;100287.22;;;6.34;87.94
66430;BME280;53242;51.694;10.006;2023-04-08T08:54:16;100294.63;;;6.38;87.68
66430;BME280;53242;51.694;10.006;2023-04-08T08:56:38;100304.38;;;6.46;87.29
66430;BME280;53242;51.694;10.006;2023-04-08T08:59:01;100310.53;;;6.37;87.90
66430;BME280;53242;51.694;10.006;2023-04-08T09:01:37;100308.28;;;6.42;87.46
66430;BME280;53242;51.694;10.006;2023-04-08T09:04:13;100307.59;;;6.40;87.37
66430;BME280;53242;51.694;10.006;2023-04-08T09:06:37;100316.00;;;6.44;86.97
66430;BME280;53242;51.694;10.006;2023-04-08T09:08:59;100313.59;;;6.50;87.08
66430;BME280;53242;51.694;10.006;2023-04-08T09:11:24;100319.97;;;6.48;87.26
66430;BME280;53242;51.694;10.006;2023-04-08T09:13:47;100320.31;;;6.35;87.10
66430;BME280;53242;51.694;10.006;2023-04-08T09:16:12;100320.22;;;6.54;86.62
66430;BME280;53242;51.694;10.006;2023-04-08T09:18:36;100322.59;;;6.48;86.39
66430;BME280;53242;51.694;10.006;2023-04-08T09:20:59;100317.53;;;6.64;86.47
66430;BME280;53242;51.694;10.006;2023-04-08T09:23:22;100325.16;;;6.57;86.01
66430;BME280;53242;51.694;10.006;2023-04-08T09:25:45;100327.09;;;6.55;86.19
66430;BME280;53242;51.694;10.006;2023-04-08T09:28:18;100329.81;;;6.64;86.40
66430;BME280;53242;51.694;10.006;2023-04-08T09:30:41;100330.53;;;6.38;86.82
66430;BME280;53242;51.694;10.006;2023-04-08T09:33:04;100335.66;;;6.57;86.23
66430;BME280;53242;51.694;10.006;2023-04-08T09:35:28;100327.28;;;6.72;86.15
66430;BME280;53242;51.694;10.006;2023-04-08T09:37:50;100327.13;;;6.73;85.90
66430;BME280;53242;51.694;10.006;2023-04-08T09:40:14;100321.97;;;6.82;85.81
66430;BME280;53242;51.694;10.006;2023-04-08T09:42:40;100324.28;;;7.03;85.37
66430;BME280;53242;51.694;10.006;2023-04-08T09:45:06;100322.78;;;7.00;85.21
66430;BME280;53242;51.694;10.006;2023-04-08T09:47:31;100326.09;;;7.20;84.72
66430;BME280;53242;51.694;10.006;2023-04-08T09:50:01;100330.00;;;7.16;84.86
66430;BME280;53242;51.694;10.006;2023-04-08T09:52:45;100322.97;;;7.25;84.30
66430;BME280;53242;51.694;10.006;2023-04-08T09:55:12;100325.69;;;7.33;84.22
66430;BME280;53242;51.694;10.006;2023-04-08T09:58:37;100341.84;;;7.20;84.84
66430;BME280;53242;51.694;10.006;2023-04-08T10:00:38;100342.28;;;7.16;84.60
66430;BME280;53242;51.694;10.006;2023-04-08T10:03:09;100341.47;;;7.15;84.54
66430;BME280;53242;51.694;10.006;2023-04-08T10:05:37;100337.41;;;7.03;84.83
66430;BME280;53242;51.694;10.006;2023-04-08T10:08:02;100345.13;;;7.22;84.45
66430;BME280;53242;51.694;10.006;2023-04-08T10:10:25;100346.78;;;7.23;83.86
66430;BME280;53242;51.694;10.006;2023-04-08T10:12:48;100351.75;;;7.27;84.27
66430;BME280;53242;51.694;10.006;2023-04-08T10:15:29;100344.13;;;7.41;83.94
66430;BME280;53242;51.694;10.006;2023-04-08T10:17:53;100345.34;;;7.29;84.41
66430;BME280;53242;51.694;10.006;2023-04-08T10:20:42;100352.22;;;7.30;84.61
66430;BME280;53242;51.694;10.006;2023-04-08T10:23:10;100347.63;;;7.24;84.35
66430;BME280;53242;51.694;10.006;2023-04-08T10:25:36;100344.69;;;7.53;83.89
66430;BME280;53242;51.694;10.006;2023-04-08T10:28:00;100348.31;;;7.52;83.85
66430;BME280;53242;51.694;10.006;2023-04-08T10:32:56;100349.09;;;7.71;83.07
66430;BME280;53242;51.694;10.006;2023-04-08T10:35:34;100344.88;;;7.78;82.43
66430;BME280;53242;51.694;10.006;2023-04-08T10:37:57;100354.66;;;7.68;82.94
66430;BME280;53242;51.694;10.006;2023-04-08T10:40:20;100352.47;;;7.89;82.14
66430;BME280;53242;51.694;10.006;2023-04-08T10:42:42;100348.34;;;7.87;82.38
66430;BME280;53242;51.694;10.006;2023-04-08T10:45:05;100349.91;;;7.98;81.87
66430;BME280;53242;51.694;10.006;2023-04-08T10:47:28;100347.59;;;7.95;82.08
66430;BME280;53242;51.694;10.006;2023-04-08T10:49:50;100353.16;;;7.92;82.05
66430;BME280;53242;51.694;10.006;2023-04-08T10:52:14;100353.84;;;7.94;81.75
66430;BME280;53242;51.694;10.006;2023-04-08T10:54:37;100362.38;;;7.69;82.47
66430;BME280;53242;51.694;10.006;2023-04-08T10:57:00;100359.63;;;7.79;82.35
66430;BME280;53242;51.694;10.006;2023-04-08T10:59:30;100358.06;;;7.86;81.85
66430;BME280;53242;51.694;10.006;2023-04-08T11:01:54;100343.41;;;8.10;81.15
66430;BME280;53242;51.694;10.006;2023-04-08T11:04:17;100336.88;;;8.22;80.93
66430;BME280;53242;51.694;10.006;2023-04-08T11:06:42;100338.53;;;8.32;80.64
66430;BME280;53242;51.694;10.006;2023-04-08T11:09:05;100347.28;;;8.32;80.26
66430;BME280;53242;51.694;10.006;2023-04-08T11:11:27;100347.28;;;8.32;80.22
66430;BME280;53242;51.694;10.006;2023-04-08T11:13:51;100353.50;;;8.31;80.47
66430;BME280;53242;51.694;10.006;2023-04-08T11:16:13;100359.94;;;8.37;80.13
66430;BME280;53242;51.694;10.006;2023-04-08T11:18:39;100364.50;;;8.27;80.27
66430;BME280;53242;51.694;10.006;2023-04-08T11:21:09;100362.38;;;8.30;80.45
66430;BME280;53242;51.694;10.006;2023-04-08T11:23:32;100355.69;;;8.44;79.93
66430;BME280;53242;51.694;10.006;2023-04-08T11:25:54;100358.44;;;8.69;78.85
66430;BME280;53242;51.694;10.006;2023-04-08T11:28:18;100360.56;;;8.65;79.45
66430;BME280;53242;51.694;10.006;2023-04-08T11:30:41;100357.28;;;8.63;78.93
66430;BME280;53242;51.694;10.006;2023-04-08T11:33:04;100360.13;;;8.95;78.03
66430;BME280;53242;51.694;10.006;2023-04-08T11:35:29;100362.63;;;8.45;79.63
66430;BME280;53242;51.694;10.006;2023-04-08T11:37:52;100362.31;;;8.48;79.30
66430;BME280;53242;51.694;10.006;2023-04-08T11:40:19;100353.00;;;8.28;79.71
66430;BME280;53242;51.694;10.006;2023-04-08T11:42:43;100356.66;;;8.35;79.95
66430;BME280;53242;51.694;10.006;2023-04-08T11:45:10;100367.75;;;8.55;78.89
66430;BME280;53242;51.694;10.006;2023-04-08T11:47:33;100363.63;;;8.52;79.18
66430;BME280;53242;51.694;10.006;2023-04-08T11:49:56;100357.78;;;8.75;78.94
66430;BME280;53242;51.694;10.006;2023-04-08T11:52:18;100359.94;;;8.80;78.70
66430;BME280;53242;51.694;10.006;2023-04-08T11:54:41;100358.78;;;8.74;78.27
66430;BME280;53242;51.694;10.006;2023-04-08T11:57:04;100358.81;;;8.82;78.38
66430;BME280;53242;51.694;10.006;2023-04-08T11:59:27;100348.00;;;9.18;77.45
66430;BME280;53242;51.694;10.006;2023-04-08T12:01:50;100354.38;;;8.99;77.69
66430;BME280;53242;51.694;10.006;2023-04-08T12:04:13;100364.38;;;8.79;78.52
66430;BME280;53242;51.694;10.006;2023-04-08T12:06:35;100354.84;;;8.86;78.44
66430;BME280;53242;51.694;10.006;2023-04-08T12:08:58;100364.88;;;8.75;78.69
66430;BME280;53242;51.694;10.006;2023-04-08T12:11:21;100357.09;;;8.57;78.94
66430;BME280;53242;51.694;10.006;2023-04-08T12:13:44;100363.91;;;8.84;78.28
66430;BME280;53242;51.694;10.006;2023-04-08T12:16:06;100364.31;;;8.63;78.61
66430;BME280;53242;51.694;10.006;2023-04-08T12:18:29;100363.38;;;8.72;78.78
66430;BME280;53242;51.694;10.006;2023-04-08T12:20:51;100367.34;;;8.76;78.74
66430;BME280;53242;51.694;10.006;2023-04-08T12:23:14;100368.53;;;8.98;77.63
66430;BME280;53242;51.694;10.006;2023-04-08T12:25:36;100368.66;;;8.88;78.17
66430;BME280;53242;51.694;10.006;2023-04-08T12:27:59;100369.69;;;8.96;78.18
66430;BME280;53242;51.694;10.006;2023-04-08T12:30:21;100364.06;;;8.82;78.03
66430;BME280;53242;51.694;10.006;2023-04-08T12:32:44;100374.94;;;8.87;78.36
66430;BME280;53242;51.694;10.006;2023-04-08T12:35:07;100372.44;;;8.86;78.11